Terminal Aerodrome Forecast
Issued by NWS

Home | Current Version | Previous Version | Text Only | Print | Product List | Glossary On
Versions: 1 2 3 4 5 6 7 8 9 10 11 12 13 14 15 16 17 18 19 20 21 22 23 24 25 26 27 28
000
FTUS41 KBOX 210538
TAFHYA
TAF
KHYA 210538Z 2106/2206 00000KT P6SM FEW035 BKN040
     FM211200 14007KT P6SM -SHRA OVC040
     FM211500 15008KT 5SM -SHRA BR OVC015
     FM212000 15009KT P6SM OVC015
     FM212100 13008KT P6SM OVC025
     FM220300 06005KT 6SM BR BKN025=

USA.gov is the U.S. government's official web portal to all federal, state and local government web resources and services.